createdAt,value
2022-09-11T00:00:33.298Z,15.60
2022-09-11T00:01:36.303Z,15.60
2022-09-11T00:02:37.902Z,15.70
2022-09-11T00:03:42.685Z,15.60
2022-09-11T00:04:44.252Z,15.70
2022-09-11T00:05:46.263Z,15.70
2022-09-11T00:06:47.693Z,15.70
2022-09-11T00:07:49.376Z,15.70
2022-09-11T00:09:02.442Z,15.60
2022-09-11T00:10:04.032Z,15.70
2022-09-11T00:11:08.447Z,15.70
2022-09-11T00:12:10.066Z,15.60
2022-09-11T00:13:15.061Z,15.60
2022-09-11T00:14:16.779Z,15.60
2022-09-11T00:15:18.423Z,15.60
2022-09-11T00:16:35.325Z,15.60
2022-09-11T00:17:37.540Z,15.60
2022-09-11T00:18:38.941Z,15.60
2022-09-11T00:19:42.707Z,15.60
2022-09-11T00:20:52.257Z,15.60
2022-09-11T00:21:55.495Z,15.60
2022-09-11T00:22:58.048Z,15.60
2022-09-11T00:23:59.596Z,15.60
2022-09-11T00:25:01.260Z,15.60
2022-09-11T00:26:03.536Z,15.60
2022-09-11T00:27:06.641Z,15.60
2022-09-11T00:28:11.885Z,15.60
2022-09-11T00:29:13.864Z,15.60
2022-09-11T00:30:15.293Z,15.60
2022-09-11T00:31:19.301Z,15.60
2022-09-11T00:32:21.153Z,15.60
2022-09-11T00:33:22.798Z,15.60
2022-09-11T00:34:24.649Z,15.60
2022-09-11T00:35:26.478Z,15.60
2022-09-11T00:36:31.564Z,15.60
2022-09-11T00:37:33.287Z,15.60
2022-09-11T00:38:37.586Z,15.60
2022-09-11T00:39:39.549Z,15.50
2022-09-11T00:40:48.650Z,15.60
2022-09-11T00:41:50.161Z,15.60
2022-09-11T00:42:55.596Z,15.60
2022-09-11T00:44:07.279Z,15.60
2022-09-11T00:45:27.020Z,15.60
2022-09-11T00:46:37.568Z,15.60
2022-09-11T00:47:39.195Z,15.60
2022-09-11T00:48:40.939Z,15.60
2022-09-11T00:49:51.101Z,15.60
2022-09-11T00:50:55.760Z,15.60
2022-09-11T00:52:23.322Z,15.60
2022-09-11T00:53:30.381Z,15.60
2022-09-11T00:54:38.282Z,15.60
2022-09-11T00:55:44.172Z,15.50
2022-09-11T00:56:46.293Z,15.60
2022-09-11T00:58:04.268Z,15.60
2022-09-11T00:59:07.156Z,15.60
2022-09-11T01:00:09.465Z,15.60
2022-09-11T01:01:11.070Z,15.60
2022-09-11T01:02:17.095Z,15.60
2022-09-11T01:03:19.502Z,15.60
2022-09-11T01:04:23.220Z,15.60
2022-09-11T01:05:28.267Z,15.60
2022-09-11T01:06:30.169Z,15.60
2022-09-11T01:07:35.635Z,15.60
2022-09-11T01:08:38.457Z,15.60
2022-09-11T01:09:40.272Z,15.60
2022-09-11T01:11:04.834Z,15.50
2022-09-11T01:12:15.493Z,15.50
2022-09-11T01:13:34.333Z,15.60
2022-09-11T01:15:00.668Z,15.50
2022-09-11T01:16:18.666Z,15.50
2022-09-11T01:17:40.363Z,15.40
2022-09-11T01:18:53.773Z,15.50
2022-09-11T01:20:32.936Z,15.50
2022-09-11T01:21:56.411Z,15.50
2022-09-11T01:23:19.613Z,15.50
2022-09-11T01:24:54.747Z,15.50
2022-09-11T01:26:18.876Z,15.50
2022-09-11T01:27:51.131Z,15.40
2022-09-11T01:28:59.268Z,15.40
2022-09-11T01:30:10.864Z,15.40
2022-09-11T01:31:18.012Z,15.40
2022-09-11T01:32:24.176Z,15.40
2022-09-11T01:33:37.413Z,15.40
2022-09-11T01:34:46.804Z,15.30
2022-09-11T01:36:06.411Z,15.40
2022-09-11T01:37:14.912Z,15.50
2022-09-11T01:38:34.612Z,15.40
2022-09-11T01:39:44.915Z,15.40
2022-09-11T01:40:55.503Z,15.40
2022-09-11T01:42:03.376Z,15.40
2022-09-11T01:43:13.833Z,15.50
2022-09-11T01:44:23.006Z,15.50
2022-09-11T01:45:26.314Z,15.40
2022-09-11T01:46:30.588Z,15.40
2022-09-11T01:47:34.691Z,15.50
2022-09-11T01:48:44.559Z,15.50
2022-09-11T01:50:03.187Z,15.50
2022-09-11T01:51:07.852Z,15.50
2022-09-11T01:52:13.818Z,15.50
2022-09-11T01:53:18.564Z,15.50
2022-09-11T01:54:23.869Z,15.50
2022-09-11T01:55:41.677Z,15.50
2022-09-11T01:56:53.238Z,15.50
2022-09-11T01:58:09.466Z,15.50
2022-09-11T01:59:19.866Z,15.50
2022-09-11T02:00:21.648Z,15.50
2022-09-11T02:01:33.757Z,15.50
2022-09-11T02:02:38.909Z,15.40
2022-09-11T02:03:46.114Z,15.40
2022-09-11T02:05:08.891Z,15.40
2022-09-11T02:06:17.684Z,15.40
2022-09-11T02:07:26.249Z,15.40
2022-09-11T02:08:39.470Z,15.40
2022-09-11T02:09:56.656Z,15.40
2022-09-11T02:11:07.539Z,15.50
2022-09-11T02:12:12.927Z,15.50
2022-09-11T02:13:47.180Z,15.50
2022-09-11T02:14:51.470Z,15.50
2022-09-11T02:16:03.799Z,15.50
2022-09-11T02:17:24.860Z,15.50
2022-09-11T02:18:38.187Z,15.50
2022-09-11T02:19:40.863Z,15.50
2022-09-11T02:20:45.364Z,15.50
2022-09-11T02:21:48.095Z,15.50
2022-09-11T02:22:49.629Z,15.50
2022-09-11T02:23:51.741Z,15.50
2022-09-11T02:24:53.792Z,15.60
2022-09-11T02:25:55.274Z,15.60
2022-09-11T02:27:05.254Z,15.60
2022-09-11T02:28:06.929Z,15.50
2022-09-11T02:29:08.757Z,15.50
2022-09-11T02:30:11.524Z,15.50
2022-09-11T02:31:14.217Z,15.50
2022-09-11T02:32:16.341Z,15.50
2022-09-11T02:33:33.236Z,15.50
2022-09-11T02:34:37.750Z,15.50
2022-09-11T02:35:50.228Z,15.50
2022-09-11T02:37:19.195Z,15.50
2022-09-11T02:38:29.934Z,15.50
2022-09-11T02:39:46.317Z,15.50
2022-09-11T02:41:03.105Z,15.40
2022-09-11T02:42:22.978Z,15.40
2022-09-11T02:43:50.739Z,15.50
2022-09-11T02:45:09.828Z,15.50
2022-09-11T02:46:51.226Z,15.50
2022-09-11T02:48:30.772Z,15.50
2022-09-11T02:50:11.075Z,15.40
2022-09-11T02:51:28.945Z,15.40
2022-09-11T02:52:57.755Z,15.40
2022-09-11T02:54:12.144Z,15.40
2022-09-11T02:55:44.612Z,15.40
2022-09-11T02:56:48.810Z,15.40
2022-09-11T02:58:02.534Z,15.40
2022-09-11T02:59:22.125Z,15.40
2022-09-11T03:00:23.629Z,15.40
2022-09-11T03:01:25.377Z,15.30
2022-09-11T03:02:33.893Z,15.40
2022-09-11T03:03:46.141Z,15.40
2022-09-11T03:04:48.470Z,15.40
2022-09-11T03:05:50.041Z,15.40
2022-09-11T03:06:53.377Z,15.40
2022-09-11T03:07:55.457Z,15.40
2022-09-11T03:08:57.156Z,15.50
2022-09-11T03:09:59.054Z,15.50
2022-09-11T03:11:00.528Z,15.50
2022-09-11T03:12:03.042Z,15.50
2022-09-11T03:13:06.046Z,15.40
2022-09-11T03:14:07.504Z,15.40
2022-09-11T03:15:12.376Z,15.40
2022-09-11T03:16:16.680Z,15.40
2022-09-11T03:17:19.968Z,15.40
2022-09-11T03:18:23.160Z,15.40
2022-09-11T03:19:26.262Z,15.50
2022-09-11T03:20:29.425Z,15.40
2022-09-11T03:21:31.427Z,15.40
2022-09-11T03:22:35.050Z,15.40
2022-09-11T03:23:37.851Z,15.40
2022-09-11T03:24:39.728Z,15.40
2022-09-11T03:25:42.629Z,15.40
2022-09-11T03:26:45.747Z,15.30
2022-09-11T03:27:47.546Z,15.30
2022-09-11T03:28:50.459Z,15.20
2022-09-11T03:29:52.006Z,15.20
2022-09-11T03:30:54.243Z,15.20
2022-09-11T03:31:59.701Z,15.10
2022-09-11T03:33:01.266Z,15.10
2022-09-11T03:34:02.927Z,15.00
2022-09-11T03:35:04.735Z,15.00
2022-09-11T03:36:06.885Z,15.00
2022-09-11T03:37:08.420Z,15.00
2022-09-11T03:38:10.305Z,15.00
2022-09-11T03:39:13.530Z,15.00
2022-09-11T03:40:15.620Z,15.00
2022-09-11T03:41:17.404Z,14.90
2022-09-11T03:42:19.106Z,14.90
2022-09-11T03:43:20.864Z,14.80
2022-09-11T03:44:22.261Z,14.80
2022-09-11T03:45:23.960Z,14.80
2022-09-11T03:46:25.640Z,14.80
2022-09-11T03:47:27.179Z,14.80
2022-09-11T03:48:30.346Z,14.80
2022-09-11T03:49:31.965Z,14.80
2022-09-11T03:50:33.833Z,14.80
2022-09-11T03:51:35.339Z,14.80
2022-09-11T03:52:37.018Z,14.90
2022-09-11T03:53:40.758Z,14.90
2022-09-11T03:54:43.024Z,14.90
2022-09-11T03:55:50.026Z,14.90
2022-09-11T03:56:51.513Z,14.90
2022-09-11T03:57:53.145Z,14.90
2022-09-11T03:58:57.083Z,15.00
2022-09-11T03:59:59.415Z,15.00
2022-09-11T04:01:00.924Z,14.90
2022-09-11T04:02:02.491Z,14.90
2022-09-11T04:03:04.761Z,14.90
2022-09-11T04:04:10.039Z,14.80
2022-09-11T04:05:15.549Z,14.80
2022-09-11T04:06:17.019Z,14.70
2022-09-11T04:07:19.391Z,14.70
2022-09-11T04:08:20.832Z,14.70
2022-09-11T04:09:22.976Z,14.80
2022-09-11T04:10:26.239Z,14.80
2022-09-11T04:11:28.231Z,14.80
2022-09-11T04:12:30.683Z,14.80
2022-09-11T04:13:34.817Z,14.80
2022-09-11T04:14:38.470Z,14.80
2022-09-11T04:15:40.905Z,14.80
2022-09-11T04:16:43.282Z,14.80
2022-09-11T04:17:46.211Z,14.80
2022-09-11T04:18:51.361Z,14.90
2022-09-11T04:19:53.603Z,14.90
2022-09-11T04:20:55.166Z,14.90
2022-09-11T04:21:57.050Z,14.80
2022-09-11T04:22:58.963Z,14.80
2022-09-11T04:24:00.685Z,14.80
2022-09-11T04:25:03.948Z,14.80
2022-09-11T04:26:20.503Z,14.80
2022-09-11T04:27:27.139Z,14.80
2022-09-11T04:28:30.878Z,14.80
2022-09-11T04:29:34.101Z,14.80
2022-09-11T04:30:38.677Z,14.80
2022-09-11T04:31:41.308Z,14.80
2022-09-11T04:32:46.250Z,14.80
2022-09-11T04:33:48.902Z,14.80
2022-09-11T04:34:50.424Z,14.80
2022-09-11T04:35:52.261Z,14.80
2022-09-11T04:36:56.148Z,14.80
2022-09-11T04:37:58.677Z,14.80
2022-09-11T04:39:00.783Z,14.80
2022-09-11T04:40:02.686Z,14.80
2022-09-11T04:41:06.475Z,14.70
2022-09-11T04:42:10.419Z,14.70
2022-09-11T04:43:13.390Z,14.80
2022-09-11T04:44:15.220Z,14.80
2022-09-11T04:45:18.943Z,14.80
2022-09-11T04:46:20.664Z,14.70
2022-09-11T04:47:22.319Z,14.70
2022-09-11T04:48:24.841Z,14.70
2022-09-11T04:49:26.598Z,14.70
2022-09-11T04:50:28.973Z,14.70
2022-09-11T04:51:54.882Z,14.70
2022-09-11T04:52:59.123Z,14.70
2022-09-11T04:54:02.020Z,14.70
2022-09-11T04:55:11.885Z,14.70
2022-09-11T04:56:14.103Z,14.70
2022-09-11T04:57:20.254Z,14.70
2022-09-11T04:58:22.714Z,14.80
2022-09-11T04:59:26.268Z,14.80
2022-09-11T05:00:36.326Z,14.80
2022-09-11T05:01:38.026Z,14.80
2022-09-11T05:02:40.674Z,14.80
2022-09-11T05:03:46.545Z,14.80
2022-09-11T05:04:48.566Z,14.80
2022-09-11T05:05:50.214Z,14.80
2022-09-11T05:06:53.464Z,14.80
2022-09-11T05:07:55.277Z,14.80
2022-09-11T05:09:01.469Z,14.80
2022-09-11T05:10:03.103Z,14.80
2022-09-11T05:11:07.852Z,14.80
2022-09-11T05:12:10.627Z,14.80
2022-09-11T05:13:12.644Z,14.70
2022-09-11T05:14:14.136Z,14.70
2022-09-11T05:15:17.196Z,14.70
2022-09-11T05:16:19.477Z,14.70
2022-09-11T05:17:21.203Z,14.70
2022-09-11T05:18:23.182Z,14.70
2022-09-11T05:19:25.652Z,14.80
2022-09-11T05:20:27.104Z,14.80
2022-09-11T05:21:28.844Z,14.80
2022-09-11T05:22:30.406Z,14.80
2022-09-11T05:23:34.333Z,14.80
2022-09-11T05:24:37.134Z,14.80
2022-09-11T05:25:39.010Z,14.90
2022-09-11T05:26:40.462Z,14.90
2022-09-11T05:27:42.299Z,14.80
2022-09-11T05:28:45.073Z,14.80
2022-09-11T05:29:46.613Z,14.80
2022-09-11T05:30:49.919Z,14.80
2022-09-11T05:31:53.066Z,14.90
2022-09-11T05:32:55.387Z,14.90
2022-09-11T05:34:00.284Z,14.90
2022-09-11T05:35:02.030Z,15.00
2022-09-11T05:36:05.375Z,14.90
2022-09-11T05:37:06.813Z,15.00
2022-09-11T05:38:14.106Z,15.00
2022-09-11T05:39:15.544Z,15.00
2022-09-11T05:40:17.064Z,15.10
2022-09-11T05:41:19.701Z,15.10
2022-09-11T05:42:22.118Z,15.10
2022-09-11T05:43:27.376Z,15.10
2022-09-11T05:44:30.884Z,15.10
2022-09-11T05:45:33.286Z,15.20
2022-09-11T05:46:34.896Z,15.20
2022-09-11T05:47:37.971Z,15.20
2022-09-11T05:48:40.296Z,15.20
2022-09-11T05:49:43.338Z,15.20
2022-09-11T05:50:56.398Z,15.20
2022-09-11T05:51:58.278Z,15.30
2022-09-11T05:53:01.227Z,15.30
2022-09-11T05:54:03.913Z,15.30
2022-09-11T05:55:06.899Z,15.30
2022-09-11T05:56:15.943Z,15.30
2022-09-11T05:57:19.636Z,15.30
2022-09-11T05:58:22.633Z,15.30
2022-09-11T05:59:24.608Z,15.40
2022-09-11T06:00:26.297Z,15.40
2022-09-11T06:01:28.873Z,15.40
2022-09-11T06:02:39.662Z,15.40
2022-09-11T06:03:41.446Z,15.40
2022-09-11T06:04:45.316Z,15.40
2022-09-11T06:05:47.329Z,15.50
2022-09-11T06:06:49.142Z,15.60
2022-09-11T06:07:52.252Z,15.50
2022-09-11T06:08:53.965Z,15.60
2022-09-11T06:09:58.707Z,15.60
2022-09-11T06:11:07.661Z,15.60
2022-09-11T06:12:12.254Z,15.60
2022-09-11T06:13:18.293Z,15.60
2022-09-11T06:14:22.035Z,15.70
2022-09-11T06:15:45.587Z,15.70
2022-09-11T06:16:48.299Z,15.70
2022-09-11T06:17:50.816Z,15.70
2022-09-11T06:18:54.228Z,15.70
2022-09-11T06:19:55.949Z,15.70
2022-09-11T06:20:58.517Z,15.80
2022-09-11T06:22:00.950Z,15.80
2022-09-11T06:23:11.252Z,15.80
2022-09-11T06:24:13.551Z,15.80
2022-09-11T06:25:15.007Z,15.90
2022-09-11T06:26:19.065Z,15.90
2022-09-11T06:27:21.324Z,15.90
2022-09-11T06:28:54.721Z,16.00
2022-09-11T06:29:58.062Z,15.90
2022-09-11T06:31:02.310Z,15.90
2022-09-11T06:32:07.082Z,16.00
2022-09-11T06:33:08.799Z,16.00
2022-09-11T06:34:10.324Z,16.00
2022-09-11T06:35:11.747Z,16.10
2022-09-11T06:36:17.348Z,16.10
2022-09-11T06:37:19.877Z,16.20
2022-09-11T06:38:22.188Z,16.20
2022-09-11T06:39:23.857Z,16.20
2022-09-11T06:40:26.547Z,16.30
2022-09-11T06:41:28.568Z,16.30
2022-09-11T06:42:49.526Z,16.30
2022-09-11T06:43:52.718Z,16.40
2022-09-11T06:44:54.339Z,16.50
2022-09-11T06:45:56.069Z,16.50
2022-09-11T06:46:57.769Z,16.60
2022-09-11T06:48:00.408Z,16.50
2022-09-11T06:49:05.157Z,16.50
2022-09-11T06:50:06.914Z,16.50
2022-09-11T06:51:31.140Z,16.60
2022-09-11T06:52:34.991Z,16.50
2022-09-11T06:53:43.665Z,16.50
2022-09-11T06:54:46.977Z,16.50
2022-09-11T06:55:51.398Z,16.60
2022-09-11T06:56:52.954Z,16.60
2022-09-11T06:57:54.811Z,16.70
2022-09-11T06:59:00.950Z,16.70
2022-09-11T07:00:04.025Z,16.90
2022-09-11T07:01:15.830Z,16.90
2022-09-11T07:02:20.401Z,17.00
2022-09-11T07:03:22.657Z,17.10
2022-09-11T07:04:25.786Z,17.20
2022-09-11T07:05:28.922Z,17.30
2022-09-11T07:06:31.296Z,17.40
2022-09-11T07:07:35.764Z,17.50
2022-09-11T07:08:39.328Z,17.40
2022-09-11T07:09:41.268Z,17.30
2022-09-11T07:10:42.692Z,17.20
2022-09-11T07:11:46.746Z,17.20
2022-09-11T07:12:49.297Z,17.20
2022-09-11T07:13:50.760Z,17.10
2022-09-11T07:14:52.189Z,17.10
2022-09-11T07:16:05.117Z,17.10
2022-09-11T07:17:09.128Z,17.00
2022-09-11T07:18:11.493Z,17.00
2022-09-11T07:19:13.599Z,17.00
2022-09-11T07:20:17.650Z,17.00
2022-09-11T07:21:22.487Z,17.10
2022-09-11T07:22:29.034Z,17.00
2022-09-11T07:23:30.438Z,17.00
2022-09-11T07:24:33.049Z,17.00
2022-09-11T07:25:40.360Z,17.00
2022-09-11T07:26:42.295Z,17.00
2022-09-11T07:27:51.825Z,17.10
2022-09-11T07:28:56.197Z,17.10
2022-09-11T07:29:58.233Z,17.30
2022-09-11T07:31:15.262Z,17.30
2022-09-11T07:32:18.979Z,17.30
2022-09-11T07:33:20.519Z,17.30
2022-09-11T07:34:22.073Z,17.30
2022-09-11T07:35:23.954Z,17.20
2022-09-11T07:36:31.857Z,17.20
2022-09-11T07:37:34.257Z,17.20
2022-09-11T07:38:35.717Z,17.30
2022-09-11T07:39:39.053Z,17.30
2022-09-11T07:40:57.134Z,17.30
2022-09-11T07:41:58.711Z,17.20
2022-09-11T07:43:03.697Z,17.20
2022-09-11T07:44:06.508Z,17.20
2022-09-11T07:45:10.085Z,17.20
2022-09-11T07:46:12.676Z,17.30
2022-09-11T07:47:14.107Z,17.30
2022-09-11T07:48:19.287Z,17.30
2022-09-11T07:49:20.728Z,17.30
2022-09-11T07:50:24.067Z,17.40
2022-09-11T07:51:26.874Z,17.30
2022-09-11T07:52:28.618Z,17.30
2022-09-11T07:53:35.768Z,17.40
2022-09-11T07:54:37.296Z,17.40
2022-09-11T07:55:39.824Z,17.40
2022-09-11T07:56:41.811Z,17.50
2022-09-11T07:57:46.625Z,17.50
2022-09-11T07:58:49.851Z,17.50
2022-09-11T07:59:51.722Z,17.50
2022-09-11T08:00:58.632Z,17.40
2022-09-11T08:02:00.396Z,17.30
2022-09-11T08:03:01.847Z,17.30
2022-09-11T08:04:11.862Z,17.40
2022-09-11T08:05:15.025Z,17.40
2022-09-11T08:06:23.203Z,17.40
2022-09-11T08:07:27.109Z,17.40
2022-09-11T08:08:29.825Z,17.30
2022-09-11T08:09:32.895Z,17.40
2022-09-11T08:10:40.827Z,17.50
2022-09-11T08:11:48.876Z,17.50
2022-09-11T08:12:55.701Z,17.50
2022-09-11T08:14:01.243Z,17.60
2022-09-11T08:15:02.996Z,17.60
2022-09-11T08:16:05.666Z,17.60
2022-09-11T08:17:07.512Z,17.60
2022-09-11T08:18:11.586Z,17.70
2022-09-11T08:19:21.968Z,17.60
2022-09-11T08:20:28.424Z,17.60
2022-09-11T08:21:29.934Z,17.60
2022-09-11T08:22:31.505Z,17.60
2022-09-11T08:23:33.282Z,17.60
2022-09-11T08:24:36.072Z,17.60
2022-09-11T08:25:39.643Z,17.50
2022-09-11T08:26:48.128Z,17.60
2022-09-11T08:27:51.211Z,17.70
2022-09-11T08:28:56.762Z,17.70
2022-09-11T08:30:00.413Z,17.80
2022-09-11T08:31:02.571Z,17.80
2022-09-11T08:32:04.577Z,17.90
2022-09-11T08:33:09.385Z,18.00
2022-09-11T08:34:11.519Z,18.10
2022-09-11T08:35:14.261Z,18.10
2022-09-11T08:36:17.188Z,18.20
2022-09-11T08:37:20.881Z,18.30
2022-09-11T08:38:23.277Z,18.20
2022-09-11T08:39:25.449Z,18.20
2022-09-11T08:40:31.545Z,18.30
2022-09-11T08:41:49.279Z,18.30
2022-09-11T08:42:57.308Z,18.30
2022-09-11T08:44:19.367Z,18.30
2022-09-11T08:45:26.234Z,18.50
2022-09-11T08:46:35.176Z,18.50
2022-09-11T08:47:39.073Z,18.60
2022-09-11T08:48:56.768Z,18.50
2022-09-11T08:50:23.509Z,18.50
2022-09-11T08:51:28.650Z,18.60
2022-09-11T08:52:32.971Z,18.50
2022-09-11T08:53:35.814Z,18.50
2022-09-11T08:54:39.309Z,18.50
2022-09-11T08:55:55.605Z,18.60
2022-09-11T08:57:22.188Z,18.60
2022-09-11T08:59:06.294Z,18.70
2022-09-11T09:00:30.919Z,18.70
2022-09-11T09:02:14.499Z,18.80
2022-09-11T09:03:38.148Z,18.70
2022-09-11T09:04:55.745Z,18.50
2022-09-11T09:06:30.506Z,18.60
2022-09-11T09:07:53.886Z,18.70
2022-09-11T09:09:07.158Z,18.80
2022-09-11T09:10:33.533Z,18.90
2022-09-11T09:11:53.077Z,18.80
2022-09-11T09:13:03.771Z,18.80
2022-09-11T09:14:33.000Z,18.90
2022-09-11T09:15:58.970Z,18.90
2022-09-11T09:17:21.863Z,18.90
2022-09-11T09:18:37.246Z,18.80
2022-09-11T09:19:45.082Z,18.90
2022-09-11T09:20:56.378Z,19.00
2022-09-11T09:22:19.560Z,19.10
2022-09-11T09:23:26.486Z,19.10
2022-09-11T09:24:33.659Z,19.20
2022-09-11T09:25:39.869Z,19.30
2022-09-11T09:26:41.720Z,19.30
2022-09-11T09:27:49.778Z,19.30
2022-09-11T09:28:54.827Z,19.20
2022-09-11T09:30:01.469Z,19.30
2022-09-11T09:31:07.994Z,19.40
2022-09-11T09:32:20.932Z,19.50
2022-09-11T09:33:34.541Z,19.60
2022-09-11T09:34:40.941Z,19.70
2022-09-11T09:35:45.328Z,19.70
2022-09-11T09:37:18.328Z,19.70
2022-09-11T09:38:40.924Z,19.70
2022-09-11T09:39:42.488Z,19.80
2022-09-11T09:41:10.235Z,20.00
2022-09-11T09:42:20.587Z,20.20
2022-09-11T09:43:29.476Z,20.40
2022-09-11T09:44:52.034Z,20.50
2022-09-11T09:46:29.689Z,20.70
2022-09-11T09:47:32.851Z,20.70
2022-09-11T09:48:39.335Z,20.80
2022-09-11T09:49:43.031Z,21.00
2022-09-11T09:50:44.771Z,20.80
2022-09-11T09:51:46.331Z,20.80
2022-09-11T09:52:49.696Z,20.80
2022-09-11T09:53:56.440Z,20.70
2022-09-11T09:55:01.311Z,20.60
2022-09-11T09:56:05.231Z,20.50
2022-09-11T09:57:13.921Z,20.40
2022-09-11T09:58:15.760Z,20.30
2022-09-11T09:59:23.561Z,20.30
2022-09-11T10:00:25.023Z,20.40
2022-09-11T10:01:44.651Z,20.30
2022-09-11T10:02:54.729Z,20.30
2022-09-11T10:04:29.591Z,20.30
2022-09-11T10:05:42.314Z,20.30
2022-09-11T10:06:46.382Z,20.30
2022-09-11T10:07:57.253Z,20.40
2022-09-11T10:09:02.749Z,20.40
2022-09-11T10:10:05.281Z,20.40
2022-09-11T10:11:10.644Z,20.30
2022-09-11T10:12:24.543Z,20.30
2022-09-11T10:13:34.076Z,20.30
2022-09-11T10:14:52.252Z,20.40
2022-09-11T10:15:59.063Z,20.30
2022-09-11T10:17:03.561Z,20.30
2022-09-11T10:18:24.883Z,20.30
2022-09-11T10:19:42.004Z,20.40
2022-09-11T10:20:44.628Z,20.40
2022-09-11T10:21:46.178Z,20.50
2022-09-11T10:22:47.850Z,20.50
2022-09-11T10:24:02.994Z,20.60
2022-09-11T10:25:04.915Z,20.60
2022-09-11T10:26:06.359Z,20.60
2022-09-11T10:27:12.281Z,20.60
2022-09-11T10:28:17.500Z,20.70
2022-09-11T10:29:20.992Z,20.70
2022-09-11T10:30:39.025Z,20.60
2022-09-11T10:31:48.638Z,20.50
2022-09-11T10:32:50.198Z,20.30
2022-09-11T10:33:58.804Z,20.10
2022-09-11T10:35:00.930Z,20.20
2022-09-11T10:36:06.035Z,20.00
2022-09-11T10:37:23.489Z,20.00
2022-09-11T10:38:47.660Z,20.10
2022-09-11T10:39:50.265Z,20.10
2022-09-11T10:41:15.326Z,19.90
2022-09-11T10:42:22.225Z,19.90
2022-09-11T10:43:30.131Z,19.70
2022-09-11T10:44:32.804Z,19.70
2022-09-11T10:45:35.146Z,19.70
2022-09-11T10:46:39.531Z,19.60
2022-09-11T10:47:41.939Z,19.60
2022-09-11T10:48:43.530Z,19.60
2022-09-11T10:49:47.093Z,19.70
2022-09-11T10:51:05.407Z,19.80
2022-09-11T10:52:10.257Z,19.90
2022-09-11T10:53:22.951Z,20.00
2022-09-11T10:54:46.080Z,20.10
2022-09-11T10:55:58.754Z,20.10
2022-09-11T10:57:18.852Z,20.20
2022-09-11T10:58:27.096Z,20.50
2022-09-11T10:59:43.720Z,20.40
2022-09-11T11:00:45.642Z,20.50
2022-09-11T11:01:47.373Z,20.60
2022-09-11T11:02:50.783Z,20.60
2022-09-11T11:03:52.607Z,20.70
2022-09-11T11:04:55.416Z,20.70
2022-09-11T11:05:59.847Z,20.60
2022-09-11T11:07:10.792Z,20.70
2022-09-11T11:08:15.732Z,20.90
2022-09-11T11:09:23.763Z,20.90
2022-09-11T11:10:45.364Z,21.10
2022-09-11T11:12:32.709Z,21.20
2022-09-11T11:13:40.250Z,21.30
2022-09-11T11:14:54.650Z,21.40
2022-09-11T11:16:15.382Z,21.40
2022-09-11T11:17:43.226Z,21.30
2022-09-11T11:19:09.168Z,21.20
2022-09-11T11:20:25.503Z,21.20
2022-09-11T11:21:48.429Z,21.10
2022-09-11T11:23:18.187Z,21.10
2022-09-11T11:24:32.405Z,21.20
2022-09-11T11:25:46.170Z,21.20
2022-09-11T11:27:18.506Z,21.30
2022-09-11T11:28:26.163Z,21.40
2022-09-11T11:29:36.454Z,21.50
2022-09-11T11:30:56.821Z,21.50
2022-09-11T11:32:31.864Z,21.60
2022-09-11T11:33:57.933Z,21.60
2022-09-11T11:35:20.922Z,21.70
2022-09-11T11:36:38.251Z,21.70
2022-09-11T11:37:45.350Z,21.70
2022-09-11T11:39:00.402Z,21.80
2022-09-11T11:40:29.245Z,21.80
2022-09-11T11:41:37.786Z,21.90
2022-09-11T11:42:56.034Z,21.90
2022-09-11T11:44:03.921Z,21.80
2022-09-11T11:45:18.581Z,21.90
2022-09-11T11:46:30.189Z,21.80
2022-09-11T11:47:38.078Z,21.70
2022-09-11T11:48:50.967Z,21.70
2022-09-11T11:50:01.358Z,21.80
2022-09-11T11:51:07.717Z,21.80
2022-09-11T11:52:30.635Z,21.70
2022-09-11T11:53:44.213Z,21.70
2022-09-11T11:54:52.438Z,21.80
2022-09-11T11:56:07.337Z,21.90
2022-09-11T11:57:20.222Z,22.00
2022-09-11T11:58:47.696Z,22.00
2022-09-11T11:59:58.524Z,21.90
2022-09-11T12:01:04.463Z,21.90
2022-09-11T12:02:21.250Z,22.00
2022-09-11T12:03:30.002Z,22.00
2022-09-11T12:04:45.963Z,22.10
2022-09-11T12:05:47.535Z,22.10
2022-09-11T12:06:49.039Z,22.10
2022-09-11T12:07:51.514Z,22.10
2022-09-11T12:08:53.369Z,22.10
2022-09-11T12:09:57.703Z,22.10
2022-09-11T12:11:07.643Z,22.10
2022-09-11T12:12:09.844Z,22.10
2022-09-11T12:13:16.850Z,22.10
2022-09-11T12:14:32.125Z,22.00
2022-09-11T12:15:36.775Z,22.00
2022-09-11T12:16:39.030Z,22.00
2022-09-11T12:17:41.189Z,22.10
2022-09-11T12:19:00.339Z,22.20
2022-09-11T12:20:10.785Z,22.10
2022-09-11T12:21:24.620Z,22.00
2022-09-11T12:22:46.773Z,22.00
2022-09-11T12:23:48.724Z,21.90
2022-09-11T12:24:58.897Z,21.90
2022-09-11T12:26:05.174Z,21.80
2022-09-11T12:27:34.550Z,21.80
2022-09-11T12:28:37.868Z,21.70
2022-09-11T12:29:55.124Z,21.70
2022-09-11T12:31:06.057Z,21.70
2022-09-11T12:32:16.633Z,21.70
2022-09-11T12:33:52.522Z,21.70
2022-09-11T12:35:01.175Z,21.80
2022-09-11T12:36:07.256Z,22.00
2022-09-11T12:37:20.390Z,22.10
2022-09-11T12:38:38.086Z,22.10
2022-09-11T12:39:50.384Z,22.10
2022-09-11T12:40:58.464Z,22.30
2022-09-11T12:42:23.227Z,22.30
2022-09-11T12:43:36.523Z,22.40
2022-09-11T12:44:46.875Z,22.40
2022-09-11T12:45:48.508Z,22.50
2022-09-11T12:46:49.956Z,22.50
2022-09-11T12:47:51.660Z,22.50
2022-09-11T12:49:23.532Z,22.50
2022-09-11T12:50:27.601Z,22.40
2022-09-11T12:51:43.176Z,22.50
2022-09-11T12:52:44.835Z,22.50
2022-09-11T12:54:03.584Z,22.50
2022-09-11T12:55:22.680Z,22.70
2022-09-11T12:56:27.600Z,22.70
2022-09-11T12:57:35.155Z,22.70
2022-09-11T12:58:43.309Z,22.70
2022-09-11T12:59:52.769Z,22.70
2022-09-11T13:01:19.975Z,22.60
2022-09-11T13:02:42.846Z,22.60
2022-09-11T13:04:09.885Z,22.70
2022-09-11T13:05:27.803Z,22.70
2022-09-11T13:06:44.656Z,22.70
2022-09-11T13:07:52.104Z,22.80
2022-09-11T13:08:59.850Z,22.80
2022-09-11T13:10:08.073Z,22.70
2022-09-11T13:11:38.964Z,22.80
2022-09-11T13:12:54.268Z,23.00
2022-09-11T13:13:56.105Z,23.00
2022-09-11T13:14:58.882Z,23.00
2022-09-11T13:16:25.356Z,23.10
2022-09-11T13:17:30.393Z,23.10
2022-09-11T13:18:35.276Z,23.20
2022-09-11T13:19:39.198Z,23.10
2022-09-11T13:20:40.861Z,23.10
2022-09-11T13:21:43.152Z,23.20
2022-09-11T13:22:47.606Z,23.30
2022-09-11T13:23:50.985Z,23.40
2022-09-11T13:25:04.632Z,23.40
2022-09-11T13:26:07.901Z,23.30
2022-09-11T13:27:21.365Z,23.20
2022-09-11T13:28:27.082Z,23.20
2022-09-11T13:29:31.347Z,23.20
2022-09-11T13:30:34.066Z,23.30
2022-09-11T13:31:37.655Z,23.30
2022-09-11T13:32:39.583Z,23.30
2022-09-11T13:33:41.716Z,23.30
2022-09-11T13:34:46.352Z,23.30
2022-09-11T13:35:47.917Z,23.30
2022-09-11T13:36:54.592Z,23.40
2022-09-11T13:38:23.476Z,23.40
2022-09-11T13:39:26.724Z,23.60
2022-09-11T13:40:33.069Z,23.60
2022-09-11T13:41:43.701Z,23.60
2022-09-11T13:42:45.765Z,23.50
2022-09-11T13:44:02.037Z,23.60
2022-09-11T13:45:04.651Z,23.60
2022-09-11T13:46:21.189Z,23.60
2022-09-11T13:47:25.828Z,23.60
2022-09-11T13:48:27.443Z,23.70
2022-09-11T13:49:39.166Z,23.70
2022-09-11T13:50:41.182Z,23.60
2022-09-11T13:51:47.471Z,23.70
2022-09-11T13:52:50.141Z,23.70
2022-09-11T13:54:04.129Z,23.70
2022-09-11T13:55:21.550Z,23.70
2022-09-11T13:56:55.238Z,23.70
2022-09-11T13:58:03.780Z,23.80
2022-09-11T13:59:47.578Z,23.80
2022-09-11T14:00:51.264Z,23.70
2022-09-11T14:01:55.505Z,23.60
2022-09-11T14:02:57.000Z,23.70
2022-09-11T14:03:58.662Z,23.60
2022-09-11T14:05:15.294Z,23.70
2022-09-11T14:06:20.630Z,23.70
2022-09-11T14:07:24.741Z,23.80
2022-09-11T14:08:40.392Z,23.80
2022-09-11T14:09:45.897Z,23.90
2022-09-11T14:10:50.922Z,23.90
2022-09-11T14:11:53.144Z,24.00
2022-09-11T14:13:27.723Z,24.10
2022-09-11T14:14:29.709Z,24.20
2022-09-11T14:15:58.828Z,24.20
2022-09-11T14:17:01.606Z,24.20
2022-09-11T14:18:04.947Z,24.20
2022-09-11T14:19:08.534Z,24.20
2022-09-11T14:20:18.065Z,24.30
2022-09-11T14:21:25.020Z,24.30
2022-09-11T14:22:30.951Z,24.20
2022-09-11T14:23:40.085Z,24.20
2022-09-11T14:25:10.572Z,24.20
2022-09-11T14:26:15.908Z,24.20
2022-09-11T14:27:31.549Z,24.30
2022-09-11T14:28:56.835Z,24.20
2022-09-11T14:30:01.391Z,24.30
2022-09-11T14:31:11.350Z,24.30
2022-09-11T14:32:42.609Z,24.30
2022-09-11T14:33:44.179Z,24.40
2022-09-11T14:34:45.639Z,24.30
2022-09-11T14:35:48.305Z,24.30
2022-09-11T14:36:55.127Z,24.30